Wednesday, June 20, 2018, 2:57 PM GMT
Back to Local

CXMI, McNabs Island , N. S.

Location: , , Canada Lat: 44.6
Local Time: 2:57 PM GMT (14:57 GMT) Lon: -63.533
Time Zone: GMT Elev: 49 ft

Show me the last for .
Show Coded

Time T Td Feel RH Dir Speed Gust Alt SLP Vis Weather Sky Remarks
2018-06-20 14:00 72 - - 0 280° 5 - - 29.77 0 None
2018-06-20 13:00 66 - - 0 290° 6 - - 29.78 0 None
2018-06-20 12:00 66 - - 0 290° 3 - - 29.78 0 None
2018-06-20 11:00 62 - - 0 290° 1 - - 29.77 0 None
2018-06-20 10:00 55 - - 0 290° 1 - - 29.77 0 None
2018-06-20 09:00 53 - - 0 290° 2 - - 29.75 0 None
2018-06-20 08:00 51 - - 0 280° 2 - - 29.74 0 None
2018-06-20 07:00 53 - - 0 310° 3 - - 29.73 0 None
2018-06-20 06:00 52 - - 0 290° 2 - - 29.72 0 None
2018-06-20 05:00 55 - - 0 320° 2 - - 29.72 0 None
2018-06-20 04:00 57 - - 0 330° 6 - - 29.71 0 None
2018-06-20 03:00 57 - - 0 310° 3 - - 29.69 0 None
2018-06-20 02:00 60 - - 0 320° 5 - - 29.68 0 None
2018-06-20 01:00 60 - - 0 280° 3 - - 29.66 0 None
2018-06-20 00:00 61 - - 0 300° 7 - - 29.63 0 Peak wind: 19 mph (17 kts) from 300° at 00 min
2018-06-19 23:00 65 - - 0 320° 9 18 - 29.60 0 Peak wind: 20 mph (18 kts) from 320° at 10 min
2018-06-19 22:00 66 - - 0 330° 12 17 - 29.57 0 Peak wind: 19 mph (17 kts) from 320° at 20 min
2018-06-19 21:00 70 - - 0 330° 10 17 - 29.55 0 Peak wind: 21 mph (19 kts) from 350° at 17 min
2018-06-19 20:00 71 - - 0 330° 14 23 - 29.53 0 Peak wind: 23 mph (20 kts) from 330° at 21 min
2018-06-19 19:00 73 - - 0 330° 12 18 - 29.51 0 Peak wind: 19 mph (17 kts) from 320° at 48 min
2018-06-19 18:00 73 - - 0 320° 10 18 - 29.49 0 None
2018-06-19 17:00 70 - - 0 310° 8 - - 29.47 0 None
2018-06-19 16:00 71 - - 0 320° 9 20 - 29.46 0 Peak wind: 19 mph (17 kts) from 290° at 53 min
2018-06-19 15:00 73 - - 0 320° 8 - - 29.47 0 None

Support USWX by starting your Amazon purchase here.